createdAt,value
2019-01-05T16:13:49.933Z,1016.77
2019-01-05T16:14:49.909Z,1016.76
2019-01-05T16:15:49.909Z,1016.81
2019-01-05T16:16:49.898Z,1016.77
2019-01-05T16:17:49.885Z,1016.81
2019-01-05T16:18:49.885Z,1016.81
2019-01-05T16:19:49.866Z,1016.76
2019-01-05T16:20:49.857Z,1016.76
2019-01-05T16:21:49.927Z,1016.71
2019-01-05T16:22:49.850Z,1016.72
2019-01-05T16:23:49.843Z,1016.76
2019-01-05T16:24:49.833Z,1016.74
2019-01-05T16:25:49.817Z,1016.72
2019-01-05T16:26:49.806Z,1016.70
2019-01-05T16:27:49.769Z,1016.71
2019-01-05T16:28:49.777Z,1016.74
2019-01-05T16:29:49.763Z,1016.71
2019-01-05T16:30:49.749Z,1016.74
2019-01-05T16:31:49.741Z,1016.76
2019-01-05T16:32:49.759Z,1016.73
2019-01-05T16:33:49.757Z,1016.71
2019-01-05T16:34:49.717Z,1016.71
2019-01-05T16:35:49.720Z,1016.70
2019-01-05T16:36:49.719Z,1016.63
2019-01-05T16:37:49.688Z,1016.65
2019-01-05T16:38:49.705Z,1016.71
2019-01-05T16:39:49.670Z,1016.65
2019-01-05T16:40:49.648Z,1016.68
2019-01-05T16:41:49.624Z,1016.67
2019-01-05T16:42:49.633Z,1016.64
2019-01-05T16:43:49.663Z,1016.68
2019-01-05T16:44:49.623Z,1016.69
2019-01-05T16:45:49.586Z,1016.72
2019-01-05T16:46:49.570Z,1016.68
2019-01-05T16:47:49.558Z,1016.71
2019-01-05T16:48:49.567Z,1016.74
2019-01-05T16:49:49.558Z,1016.77
2019-01-05T16:50:49.544Z,1016.72
2019-01-05T16:51:49.529Z,1016.77
2019-01-05T16:52:49.517Z,1016.75
2019-01-05T16:53:49.500Z,1016.75
2019-01-05T16:54:49.539Z,1016.77
2019-01-05T16:55:49.473Z,1016.76
2019-01-05T16:56:49.469Z,1016.79
2019-01-05T16:57:49.511Z,1016.86
2019-01-05T16:58:49.436Z,1016.83
2019-01-05T16:59:49.444Z,1016.83
2019-01-05T17:00:49.417Z,1016.78
2019-01-05T17:01:49.432Z,1016.90
2019-01-05T17:02:49.402Z,1016.84
2019-01-05T17:03:49.386Z,1016.88
2019-01-05T17:04:49.395Z,1016.87
2019-01-05T17:05:49.370Z,1016.90
2019-01-05T17:06:49.358Z,1016.94
2019-01-05T17:07:49.359Z,1016.91
2019-01-05T17:08:49.334Z,1016.93
2019-01-05T17:09:49.352Z,1016.93
2019-01-05T17:10:49.312Z,1016.93
2019-01-05T17:11:49.297Z,1016.94
2019-01-05T17:12:49.294Z,1016.95
2019-01-05T17:13:49.279Z,1016.94
2019-01-05T17:14:49.307Z,1017.00
2019-01-05T17:15:49.265Z,1016.93
2019-01-05T17:16:49.274Z,1017.00
2019-01-05T17:17:49.242Z,1017.03
2019-01-05T17:18:49.267Z,1017.05
2019-01-05T17:19:49.276Z,1017.08
2019-01-05T17:20:49.348Z,1017.08
2019-01-05T17:21:49.196Z,1017.03
2019-01-05T17:22:49.211Z,1017.12
2019-01-05T17:23:49.203Z,1017.09
2019-01-05T17:24:49.201Z,1017.07
2019-01-05T17:25:49.195Z,1017.09
2019-01-05T17:26:49.333Z,1017.12
2019-01-05T17:27:49.137Z,1017.11
2019-01-05T17:28:49.171Z,1017.15
2019-01-05T17:29:49.117Z,1017.19
2019-01-05T17:30:49.196Z,1017.17
2019-01-05T17:31:49.985Z,1017.19
2019-01-05T17:32:49.164Z,1017.20
2019-01-05T17:33:49.125Z,1017.18
2019-01-05T17:34:49.057Z,1017.21
2019-01-05T17:35:49.117Z,1017.21
2019-01-05T17:36:49.588Z,1017.17
2019-01-05T17:37:49.062Z,1017.24
2019-01-05T17:38:49.987Z,1017.21
2019-01-05T17:39:49.974Z,1017.23
2019-01-05T17:40:49.106Z,1017.26
2019-01-05T17:41:49.035Z,1017.25
2019-01-05T17:42:49.479Z,1017.30
2019-01-05T17:43:48.986Z,1017.30
2019-01-05T17:44:48.980Z,1017.30
2019-01-05T17:45:48.969Z,1017.26
2019-01-05T17:46:49.536Z,1017.34
2019-01-05T17:47:49.325Z,1017.32
2019-01-05T17:48:49.047Z,1017.33
2019-01-05T17:49:48.913Z,1017.33
2019-01-05T17:50:49.598Z,1017.32
2019-01-05T17:51:48.867Z,1017.32
2019-01-05T17:52:48.865Z,1017.35
2019-01-05T17:53:48.975Z,1017.33
2019-01-05T17:54:48.876Z,1017.33
2019-01-05T17:55:48.863Z,1017.36
2019-01-05T17:56:48.858Z,1017.36
2019-01-05T17:57:48.836Z,1017.37
2019-01-05T17:58:48.795Z,1017.37
2019-01-05T17:59:48.806Z,1017.40
2019-01-05T18:00:48.803Z,1017.39
2019-01-05T18:01:50.480Z,1017.44
2019-01-05T18:02:48.780Z,1017.42
2019-01-05T18:03:48.798Z,1017.44
2019-01-05T18:04:48.865Z,1017.50
2019-01-05T18:05:48.862Z,1017.51
2019-01-05T18:06:48.724Z,1017.48
2019-01-05T18:07:48.713Z,1017.48
2019-01-05T18:08:48.767Z,1017.55
2019-01-05T18:09:48.686Z,1017.52
2019-01-05T18:10:48.682Z,1017.54
2019-01-05T18:11:48.736Z,1017.53
2019-01-05T18:12:48.655Z,1017.53
2019-01-05T18:13:48.652Z,1017.56
2019-01-05T18:14:48.702Z,1017.56
2019-01-05T18:15:48.646Z,1017.56
2019-01-05T18:16:48.655Z,1017.61
2019-01-05T18:17:48.617Z,1017.67
2019-01-05T18:18:48.580Z,1017.67
2019-01-05T18:19:48.610Z,1017.67
2019-01-05T18:20:48.587Z,1017.71
2019-01-05T18:21:48.585Z,1017.68
2019-01-05T18:22:48.590Z,1017.72
2019-01-05T18:23:48.540Z,1017.72
2019-01-05T18:24:48.665Z,1017.72
2019-01-05T18:25:48.588Z,1017.76
2019-01-05T18:26:48.564Z,1017.72
2019-01-05T18:27:48.504Z,1017.73
2019-01-05T18:28:48.528Z,1017.73
2019-01-05T18:29:48.495Z,1017.72
2019-01-05T18:30:48.466Z,1017.67
2019-01-05T18:31:48.489Z,1017.69
2019-01-05T18:32:48.458Z,1017.67
2019-01-05T18:33:48.418Z,1017.65
2019-01-05T18:34:48.524Z,1017.69
2019-01-05T18:35:48.482Z,1017.65
2019-01-05T18:36:48.413Z,1017.69
2019-01-05T18:37:48.402Z,1017.70
2019-01-05T18:38:48.398Z,1017.72
2019-01-05T18:39:48.375Z,1017.68
2019-01-05T18:40:48.381Z,1017.74
2019-01-05T18:41:48.349Z,1017.72
2019-01-05T18:42:48.358Z,1017.76
2019-01-05T18:43:48.350Z,1017.78
2019-01-05T18:44:48.355Z,1017.79
2019-01-05T18:45:48.324Z,1017.78
2019-01-05T18:46:48.329Z,1017.80
2019-01-05T18:47:48.267Z,1017.83
2019-01-05T18:48:48.317Z,1017.83
2019-01-05T18:49:48.263Z,1017.83
2019-01-05T18:50:48.275Z,1017.83
2019-01-05T18:51:48.246Z,1017.87
2019-01-05T18:52:48.223Z,1017.88
2019-01-05T18:53:48.217Z,1017.93
2019-01-05T18:54:48.199Z,1017.91
2019-01-05T18:55:48.276Z,1017.87
2019-01-05T18:56:48.183Z,1017.92
2019-01-05T18:57:48.193Z,1017.96
2019-01-05T18:58:48.314Z,1017.97
2019-01-05T18:59:48.188Z,1017.99
2019-01-05T19:00:48.161Z,1017.99
2019-01-05T19:01:48.163Z,1018.03
2019-01-05T19:02:48.142Z,1018.06
2019-01-05T19:03:48.157Z,1018.10
2019-01-05T19:04:48.242Z,1018.16
2019-01-05T19:05:48.140Z,1018.16
2019-01-05T19:06:48.077Z,1018.19
2019-01-05T19:07:48.121Z,1018.20
2019-01-05T19:08:49.709Z,1018.18
2019-01-05T19:09:49.481Z,1018.20
2019-01-05T19:10:48.061Z,1018.22
2019-01-05T19:11:48.189Z,1018.24
2019-01-05T19:12:48.083Z,1018.24
2019-01-05T19:13:48.013Z,1018.26
2019-01-05T19:14:48.139Z,1018.24
2019-01-05T19:15:48.009Z,1018.28
2019-01-05T19:16:47.990Z,1018.28
2019-01-05T19:17:47.967Z,1018.33
2019-01-05T19:18:48.066Z,1018.35
2019-01-05T19:19:47.960Z,1018.36
2019-01-05T19:20:48.527Z,1018.39
2019-01-05T19:21:47.958Z,1018.36
2019-01-05T19:22:47.989Z,1018.37
2019-01-05T19:23:47.893Z,1018.42
2019-01-05T19:24:47.897Z,1018.43
2019-01-05T19:25:47.862Z,1018.45
2019-01-05T19:26:48.020Z,1018.48
2019-01-05T19:27:47.863Z,1018.50
2019-01-05T19:28:47.871Z,1018.51
2019-01-05T19:29:47.835Z,1018.47
2019-01-05T19:30:48.569Z,1018.46
2019-01-05T19:31:47.836Z,1018.45
2019-01-05T19:32:48.265Z,1018.48
2019-01-05T19:33:47.780Z,1018.46
2019-01-05T19:34:47.786Z,1018.48
2019-01-05T19:35:47.911Z,1018.49
2019-01-05T19:36:47.770Z,1018.44
2019-01-05T19:37:47.891Z,1018.46
2019-01-05T19:38:48.558Z,1018.47
2019-01-05T19:39:47.726Z,1018.50
2019-01-05T19:40:48.116Z,1018.52
2019-01-05T19:41:47.718Z,1018.54
2019-01-05T19:42:47.727Z,1018.57
2019-01-05T19:43:47.687Z,1018.55
2019-01-05T19:44:47.709Z,1018.57
2019-01-05T19:45:47.658Z,1018.58
2019-01-05T19:46:47.655Z,1018.64
2019-01-05T19:47:47.634Z,1018.59
2019-01-05T19:48:47.661Z,1018.56
2019-01-05T19:49:47.611Z,1018.60
2019-01-05T19:50:47.615Z,1018.57
2019-01-05T19:51:47.592Z,1018.63
2019-01-05T19:52:47.582Z,1018.63
2019-01-05T19:53:49.160Z,1018.61
2019-01-05T19:54:47.554Z,1018.63
2019-01-05T19:55:47.552Z,1018.67
2019-01-05T19:56:47.543Z,1018.68
2019-01-05T19:57:47.528Z,1018.65
2019-01-05T19:58:47.534Z,1018.69
2019-01-05T19:59:48.482Z,1018.64
2019-01-05T20:00:47.497Z,1018.71
2019-01-05T20:01:47.488Z,1018.73
2019-01-05T20:02:47.474Z,1018.75
2019-01-05T20:03:47.478Z,1018.78
2019-01-05T20:04:47.453Z,1018.73
2019-01-05T20:05:47.652Z,1018.74
2019-01-05T20:06:47.489Z,1018.76
2019-01-05T20:07:47.444Z,1018.77
2019-01-05T20:08:48.076Z,1018.74
2019-01-05T20:09:47.393Z,1018.80
2019-01-05T20:10:47.474Z,1018.82
2019-01-05T20:11:47.373Z,1018.87
2019-01-05T20:12:47.354Z,1018.91
2019-01-05T20:13:47.589Z,1018.85
2019-01-05T20:14:47.349Z,1018.87
2019-01-05T20:15:47.335Z,1018.86
2019-01-05T20:16:47.317Z,1018.82
2019-01-05T20:17:47.306Z,1018.85
2019-01-05T20:18:47.357Z,1018.89
2019-01-05T20:19:47.288Z,1018.85
2019-01-05T20:20:47.275Z,1018.87
2019-01-05T20:21:47.270Z,1018.87
2019-01-05T20:22:47.271Z,1018.87
2019-01-05T20:23:47.287Z,1018.94
2019-01-05T20:24:47.239Z,1018.95
2019-01-05T20:25:47.237Z,1018.88
2019-01-05T20:26:47.212Z,1018.89
2019-01-05T20:27:47.195Z,1018.95
2019-01-05T20:28:47.197Z,1018.93
2019-01-05T20:29:47.227Z,1018.96
2019-01-05T20:30:47.159Z,1018.97
2019-01-05T20:31:48.990Z,1018.97
2019-01-05T20:32:47.170Z,1018.95
2019-01-05T20:33:49.029Z,1019.01
2019-01-05T20:34:47.144Z,1019.01
2019-01-05T20:35:47.981Z,1018.99
2019-01-05T20:36:47.103Z,1019.01
2019-01-05T20:37:47.097Z,1018.99
2019-01-05T20:38:47.095Z,1018.98
2019-01-05T20:39:47.149Z,1019.02
2019-01-05T20:40:47.067Z,1019.06
2019-01-05T20:41:47.594Z,1019.04
2019-01-05T20:42:47.059Z,1019.09
2019-01-05T20:43:47.136Z,1019.07
2019-01-05T20:44:49.891Z,1019.08
2019-01-05T20:45:47.055Z,1019.10
2019-01-05T20:46:47.127Z,1019.08
2019-01-05T20:47:49.177Z,1019.07
2019-01-05T20:48:47.911Z,1019.07
2019-01-05T20:49:47.250Z,1019.09
2019-01-05T20:50:46.961Z,1019.08
2019-01-05T20:51:46.948Z,1019.11
2019-01-05T20:52:47.070Z,1019.10
2019-01-05T20:53:46.939Z,1019.08
2019-01-05T20:54:46.959Z,1019.08
2019-01-05T20:55:46.912Z,1019.08
2019-01-05T20:56:47.744Z,1019.15
2019-01-05T20:57:46.915Z,1019.15
2019-01-05T20:58:46.870Z,1019.11
2019-01-05T20:59:46.884Z,1019.18
2019-01-05T21:00:46.884Z,1019.17
2019-01-05T21:01:47.120Z,1019.19
2019-01-05T21:02:48.516Z,1019.15
2019-01-05T21:03:46.852Z,1019.17
2019-01-05T21:04:47.213Z,1019.19
2019-01-05T21:05:46.960Z,1019.19
2019-01-05T21:06:46.820Z,1019.20
2019-01-05T21:07:46.814Z,1019.20
2019-01-05T21:08:47.132Z,1019.21
2019-01-05T21:09:46.896Z,1019.23
2019-01-05T21:10:47.604Z,1019.23
2019-01-05T21:11:46.768Z,1019.25
2019-01-05T21:12:46.774Z,1019.23
2019-01-05T21:13:46.915Z,1019.26
2019-01-05T21:14:46.706Z,1019.27
2019-01-05T21:15:46.700Z,1019.30
2019-01-05T21:16:46.676Z,1019.25
2019-01-05T21:17:46.781Z,1019.22
2019-01-05T21:18:46.692Z,1019.23
2019-01-05T21:19:46.801Z,1019.23
2019-01-05T21:20:46.689Z,1019.24
2019-01-05T21:21:46.915Z,1019.27
2019-01-05T21:22:46.632Z,1019.24
2019-01-05T21:23:46.611Z,1019.23
2019-01-05T21:24:46.591Z,1019.25
2019-01-05T21:25:46.608Z,1019.27
2019-01-05T21:26:46.615Z,1019.27
2019-01-05T21:27:46.620Z,1019.26
2019-01-05T21:28:46.604Z,1019.27
2019-01-05T21:29:46.596Z,1019.27
2019-01-05T21:30:47.638Z,1019.24
2019-01-05T21:31:46.649Z,1019.25
2019-01-05T21:32:46.513Z,1019.29
2019-01-05T21:33:46.499Z,1019.25
2019-01-05T21:34:46.489Z,1019.27
2019-01-05T21:35:46.689Z,1019.28
2019-01-05T21:36:46.465Z,1019.29
2019-01-05T21:37:47.885Z,1019.32
2019-01-05T21:38:46.454Z,1019.35
2019-01-05T21:39:46.427Z,1019.33
2019-01-05T21:40:46.457Z,1019.31
2019-01-05T21:41:46.430Z,1019.32
2019-01-05T21:42:46.421Z,1019.37
2019-01-05T21:43:46.421Z,1019.33
2019-01-05T21:44:46.407Z,1019.39
2019-01-05T21:45:46.391Z,1019.34
2019-01-05T21:46:46.366Z,1019.34
2019-01-05T21:47:49.371Z,1019.39
2019-01-05T21:48:46.343Z,1019.40
2019-01-05T21:49:47.144Z,1019.38
2019-01-05T21:50:47.185Z,1019.42
2019-01-05T21:51:48.483Z,1019.41
2019-01-05T21:52:54.791Z,1019.45
2019-01-05T21:53:46.444Z,1019.42
2019-01-05T21:54:46.303Z,1019.43
2019-01-05T21:55:46.259Z,1019.46
2019-01-05T21:56:46.275Z,1019.40
2019-01-05T21:57:46.259Z,1019.39
2019-01-05T21:58:46.259Z,1019.40
2019-01-05T21:59:46.237Z,1019.36
2019-01-05T22:00:46.226Z,1019.33
2019-01-05T22:01:46.238Z,1019.35
2019-01-05T22:02:46.214Z,1019.38
2019-01-05T22:03:46.183Z,1019.38
2019-01-05T22:04:46.176Z,1019.40
2019-01-05T22:05:46.153Z,1019.38
2019-01-05T22:06:46.174Z,1019.40
2019-01-05T22:07:46.177Z,1019.39
2019-01-05T22:08:46.134Z,1019.37
2019-01-05T22:09:46.126Z,1019.42
2019-01-05T22:10:46.135Z,1019.40
2019-01-05T22:11:46.177Z,1019.35
2019-01-05T22:12:46.092Z,1019.36
2019-01-05T22:13:46.095Z,1019.34
2019-01-05T22:14:46.056Z,1019.33
2019-01-05T22:15:46.076Z,1019.36
2019-01-05T22:16:46.257Z,1019.36
2019-01-05T22:17:46.077Z,1019.38
2019-01-05T22:18:46.083Z,1019.37
2019-01-05T22:19:46.035Z,1019.37
2019-01-05T22:20:46.039Z,1019.38
2019-01-05T22:21:45.994Z,1019.38
2019-01-05T22:22:45.984Z,1019.38
2019-01-05T22:23:45.994Z,1019.38
2019-01-05T22:24:46.166Z,1019.37
2019-01-05T22:25:45.987Z,1019.41
2019-01-05T22:26:45.946Z,1019.42
2019-01-05T22:27:45.923Z,1019.43
2019-01-05T22:28:45.947Z,1019.43
2019-01-05T22:29:45.898Z,1019.43
2019-01-05T22:30:45.889Z,1019.42
2019-01-05T22:31:45.912Z,1019.40
2019-01-05T22:32:45.900Z,1019.40
2019-01-05T22:33:45.888Z,1019.43
2019-01-05T22:34:45.859Z,1019.43
2019-01-05T22:35:45.858Z,1019.46
2019-01-05T22:36:45.882Z,1019.50
2019-01-05T22:37:45.850Z,1019.50
2019-01-05T22:38:45.894Z,1019.49
2019-01-05T22:39:45.830Z,1019.46
2019-01-05T22:40:45.806Z,1019.43
2019-01-05T22:41:45.772Z,1019.42
2019-01-05T22:42:45.817Z,1019.40
2019-01-05T22:43:45.760Z,1019.43
2019-01-05T22:44:45.752Z,1019.49
2019-01-05T22:45:45.731Z,1019.51
2019-01-05T22:46:45.720Z,1019.47
2019-01-05T22:47:45.762Z,1019.45
2019-01-05T22:48:45.701Z,1019.48
2019-01-05T22:49:45.713Z,1019.50
2019-01-05T22:50:45.680Z,1019.47
2019-01-05T22:51:45.680Z,1019.52
2019-01-05T22:52:45.692Z,1019.52
2019-01-05T22:53:45.646Z,1019.54
2019-01-05T22:54:45.685Z,1019.54
2019-01-05T22:55:45.681Z,1019.52
2019-01-05T22:56:45.628Z,1019.53
2019-01-05T22:57:45.627Z,1019.52
2019-01-05T22:58:45.619Z,1019.53
2019-01-05T22:59:45.581Z,1019.54
2019-01-05T23:00:45.593Z,1019.55
2019-01-05T23:01:45.585Z,1019.58
2019-01-05T23:02:45.589Z,1019.57
2019-01-05T23:03:45.531Z,1019.60
2019-01-05T23:04:45.527Z,1019.65
2019-01-05T23:05:45.525Z,1019.64
2019-01-05T23:06:45.501Z,1019.65
2019-01-05T23:07:45.529Z,1019.66
2019-01-05T23:08:45.477Z,1019.62
2019-01-05T23:09:45.473Z,1019.60
2019-01-05T23:10:45.463Z,1019.57
2019-01-05T23:11:45.447Z,1019.59
2019-01-05T23:12:45.477Z,1019.57
2019-01-05T23:13:45.451Z,1019.56
2019-01-05T23:14:45.417Z,1019.53
2019-01-05T23:15:45.429Z,1019.49
2019-01-05T23:16:45.418Z,1019.47
2019-01-05T23:17:45.409Z,1019.47
2019-01-05T23:18:45.377Z,1019.47
2019-01-05T23:19:45.360Z,1019.48
2019-01-05T23:20:45.352Z,1019.53
2019-01-05T23:21:45.361Z,1019.49
2019-01-05T23:22:45.329Z,1019.54
2019-01-05T23:23:45.337Z,1019.50
2019-01-05T23:24:45.304Z,1019.52
2019-01-05T23:25:45.292Z,1019.56
2019-01-05T23:26:45.299Z,1019.57
2019-01-05T23:27:45.268Z,1019.54
2019-01-05T23:28:45.297Z,1019.61
2019-01-05T23:29:45.259Z,1019.61
2019-01-05T23:30:45.252Z,1019.66
2019-01-05T23:31:45.258Z,1019.64
2019-01-05T23:32:45.293Z,1019.66
2019-01-05T23:33:45.234Z,1019.67
2019-01-05T23:34:45.294Z,1019.71
2019-01-05T23:35:45.197Z,1019.70
2019-01-05T23:36:45.186Z,1019.73
2019-01-05T23:37:46.343Z,1019.72
2019-01-05T23:38:50.128Z,1019.73
2019-01-05T23:39:46.140Z,1019.71
2019-01-05T23:40:45.148Z,1019.74
2019-01-05T23:41:45.418Z,1019.73
2019-01-05T23:42:45.112Z,1019.69
2019-01-05T23:43:45.152Z,1019.69
2019-01-05T23:44:45.126Z,1019.71
2019-01-05T23:45:45.085Z,1019.68
2019-01-05T23:46:45.083Z,1019.66
2019-01-05T23:47:45.090Z,1019.64
2019-01-05T23:48:45.088Z,1019.69
2019-01-05T23:49:45.038Z,1019.79
2019-01-05T23:50:45.028Z,1019.76
2019-01-05T23:51:45.048Z,1019.76
2019-01-05T23:52:45.018Z,1019.81
2019-01-05T23:53:45.021Z,1019.81
2019-01-05T23:54:44.987Z,1019.80
2019-01-05T23:55:44.988Z,1019.84
2019-01-05T23:56:44.979Z,1019.83
2019-01-05T23:57:44.965Z,1019.86
2019-01-05T23:58:45.030Z,1019.88
2019-01-05T23:59:44.928Z,1019.90
